createdAt,value
2023-01-29T00:00:14.764Z,102860.03
2023-01-29T00:00:46.566Z,102859.44
2023-01-29T00:01:18.138Z,102857.72
2023-01-29T00:01:49.751Z,102860.03
2023-01-29T00:02:21.552Z,102850.59
2023-01-29T00:02:53.173Z,102847.75
2023-01-29T00:03:24.755Z,102855.94
2023-01-29T00:03:56.794Z,102851.66
2023-01-29T00:04:28.296Z,102855.63
2023-01-29T00:05:09.995Z,102846.91
2023-01-29T00:05:48.920Z,102857.00
2023-01-29T00:06:20.601Z,102855.41
2023-01-29T00:06:52.092Z,102853.13
2023-01-29T00:07:23.997Z,102858.38
2023-01-29T00:07:56.965Z,102853.94
2023-01-29T00:08:28.733Z,102858.38
2023-01-29T00:09:00.847Z,102861.94
2023-01-29T00:09:32.405Z,102855.84
2023-01-29T00:10:04.135Z,102861.09
2023-01-29T00:10:35.694Z,102863.41
2023-01-29T00:11:08.861Z,102862.78
2023-01-29T00:11:40.532Z,102862.78
2023-01-29T00:12:12.036Z,102860.25
2023-01-29T00:12:43.562Z,102861.19
2023-01-29T00:13:15.075Z,102865.50
2023-01-29T00:13:47.244Z,102856.69
2023-01-29T00:14:19.685Z,102859.00
2023-01-29T00:14:51.201Z,102859.00
2023-01-29T00:15:22.771Z,102866.03
2023-01-29T00:15:56.332Z,102864.44
2023-01-29T00:16:28.106Z,102854.78
2023-01-29T00:16:59.745Z,102860.03
2023-01-29T00:17:31.471Z,102865.28
2023-01-29T00:18:03.071Z,102865.28
2023-01-29T00:18:38.550Z,102865.50
2023-01-29T00:19:10.197Z,102860.88
2023-01-29T00:19:41.861Z,102858.38
2023-01-29T00:20:13.561Z,102850.59
2023-01-29T00:20:45.197Z,102865.50
2023-01-29T00:21:18.829Z,102846.19
2023-01-29T00:21:50.403Z,102860.25
2023-01-29T00:22:22.098Z,102851.66
2023-01-29T00:22:53.654Z,102842.00
2023-01-29T00:23:25.267Z,102849.75
2023-01-29T00:23:57.169Z,102848.81
2023-01-29T00:24:28.923Z,102846.19
2023-01-29T00:25:00.508Z,102847.88
2023-01-29T00:25:32.048Z,102858.38
2023-01-29T00:26:03.685Z,102842.63
2023-01-29T00:26:35.434Z,102847.88
2023-01-29T00:27:08.756Z,102846.91
2023-01-29T00:27:40.490Z,102845.25
2023-01-29T00:28:13.049Z,102849.53
2023-01-29T00:28:44.721Z,102849.53
2023-01-29T00:29:17.917Z,102842.63
2023-01-29T00:30:09.250Z,102845.56
2023-01-29T00:30:41.169Z,102839.78
2023-01-29T00:31:18.945Z,102842.41
2023-01-29T00:31:50.726Z,102840.09
2023-01-29T00:32:22.364Z,102840.84
2023-01-29T00:32:54.156Z,102836.22
2023-01-29T00:33:25.701Z,102841.59
2023-01-29T00:33:58.182Z,102836.00
2023-01-29T00:34:30.038Z,102830.22
2023-01-29T00:35:01.847Z,102841.78
2023-01-29T00:35:33.924Z,102834.00
2023-01-29T00:36:06.900Z,102834.84
2023-01-29T00:36:38.529Z,102825.41
2023-01-29T00:37:10.143Z,102824.78
2023-01-29T00:37:41.742Z,102826.47
2023-01-29T00:38:13.262Z,102825.19
2023-01-29T00:38:44.834Z,102818.91
2023-01-29T00:39:16.364Z,102819.94
2023-01-29T00:39:48.546Z,102818.91
2023-01-29T00:40:20.108Z,102831.19
2023-01-29T00:41:10.109Z,102816.16
2023-01-29T00:42:20.449Z,102817.22
2023-01-29T00:43:10.799Z,102808.28
2023-01-29T00:44:02.049Z,102810.06
2023-01-29T00:44:52.274Z,102809.25
2023-01-29T00:45:23.873Z,102808.19
2023-01-29T00:45:55.403Z,102810.91
2023-01-29T00:46:26.981Z,102811.97
2023-01-29T00:46:59.496Z,102808.63
2023-01-29T00:47:31.110Z,102804.63
2023-01-29T00:48:03.705Z,102809.13
2023-01-29T00:48:35.400Z,102804.00
2023-01-29T00:49:07.388Z,102800.41
2023-01-29T00:49:38.913Z,102800.63
2023-01-29T00:50:12.044Z,102797.28
2023-01-29T00:50:43.745Z,102798.66
2023-01-29T00:51:15.269Z,102799.16
2023-01-29T00:52:09.458Z,102793.50
2023-01-29T00:52:41.300Z,102791.63
2023-01-29T00:53:14.137Z,102796.34
2023-01-29T00:53:45.854Z,102794.97
2023-01-29T00:54:17.668Z,102793.31
2023-01-29T00:54:49.291Z,102798.66
2023-01-29T00:55:20.913Z,102796.88
2023-01-29T00:55:52.433Z,102799.50
2023-01-29T00:56:25.450Z,102796.75
2023-01-29T00:56:56.959Z,102797.72
2023-01-29T00:57:30.492Z,102807.56
2023-01-29T00:58:01.991Z,102807.03
2023-01-29T00:58:36.542Z,102801.06
2023-01-29T00:59:08.097Z,102810.63
2023-01-29T00:59:39.639Z,102804.84
2023-01-29T01:00:13.954Z,102802.75
2023-01-29T01:00:45.615Z,102812.72
2023-01-29T01:01:17.335Z,102805.78
2023-01-29T01:02:07.236Z,102804.63
2023-01-29T01:02:57.631Z,102804.22
2023-01-29T01:03:33.904Z,102803.16
2023-01-29T01:04:05.824Z,102808.41
2023-01-29T01:04:38.453Z,102806.75
2023-01-29T01:05:14.241Z,102802.94
2023-01-29T01:05:45.817Z,102806.53
2023-01-29T01:06:17.332Z,102810.09
2023-01-29T01:06:48.833Z,102804.75
2023-01-29T01:07:20.788Z,102813.03
2023-01-29T01:07:54.036Z,102808.72
2023-01-29T01:09:00.753Z,102806.09
2023-01-29T01:09:51.135Z,102802.00
2023-01-29T01:10:31.176Z,102810.94
2023-01-29T01:11:05.471Z,102810.72
2023-01-29T01:11:37.295Z,102811.56
2023-01-29T01:12:08.805Z,102817.84
2023-01-29T01:12:40.340Z,102809.88
2023-01-29T01:13:12.588Z,102808.94
2023-01-29T01:13:44.189Z,102813.25
2023-01-29T01:14:15.797Z,102808.00
2023-01-29T01:14:47.865Z,102806.31
2023-01-29T01:15:19.949Z,102806.94
2023-01-29T01:15:51.488Z,102806.53
2023-01-29T01:16:23.059Z,102810.91
2023-01-29T01:16:54.589Z,102802.63
2023-01-29T01:17:26.310Z,102798.97
2023-01-29T01:17:59.806Z,102804.41
2023-01-29T01:18:31.607Z,102802.00
2023-01-29T01:19:04.213Z,102809.88
2023-01-29T01:19:37.434Z,102806.94
2023-01-29T01:20:10.760Z,102810.72
2023-01-29T01:20:42.292Z,102810.81
2023-01-29T01:21:13.834Z,102810.09
2023-01-29T01:21:48.125Z,102810.00
2023-01-29T01:22:19.963Z,102804.13
2023-01-29T01:22:53.656Z,102811.56
2023-01-29T01:23:25.877Z,102805.38
2023-01-29T01:23:57.530Z,102800.66
2023-01-29T01:24:29.230Z,102806.75
2023-01-29T01:25:00.896Z,102800.53
2023-01-29T01:25:32.876Z,102797.72
2023-01-29T01:26:09.019Z,102801.06
2023-01-29T01:26:40.670Z,102802.53
2023-01-29T01:27:13.039Z,102802.75
2023-01-29T01:27:44.930Z,102795.81
2023-01-29T01:28:16.508Z,102805.78
2023-01-29T01:28:48.146Z,102794.34
2023-01-29T01:29:19.664Z,102794.75
2023-01-29T01:29:51.338Z,102795.81
2023-01-29T01:30:23.748Z,102799.38
2023-01-29T01:30:55.505Z,102797.50
2023-01-29T01:31:27.132Z,102795.59
2023-01-29T01:31:59.735Z,102794.13
2023-01-29T01:32:31.456Z,102787.22
2023-01-29T01:33:03.057Z,102792.25
2023-01-29T01:33:37.324Z,102793.19
2023-01-29T01:34:08.858Z,102797.09
2023-01-29T01:34:40.402Z,102797.09
2023-01-29T01:35:13.109Z,102797.50
2023-01-29T01:35:44.721Z,102799.38
2023-01-29T01:36:17.154Z,102802.94
2023-01-29T01:36:49.070Z,102792.47
2023-01-29T01:37:22.755Z,102799.59
2023-01-29T01:37:54.339Z,102802.13
2023-01-29T01:38:25.858Z,102798.97
2023-01-29T01:38:57.395Z,102796.03
2023-01-29T01:39:29.071Z,102804.84
2023-01-29T01:40:01.216Z,102800.34
2023-01-29T01:40:32.858Z,102807.03
2023-01-29T01:41:04.424Z,102802.75
2023-01-29T01:41:36.172Z,102808.94
2023-01-29T01:42:13.668Z,102796.25
2023-01-29T01:42:51.471Z,102792.69
2023-01-29T01:43:23.088Z,102797.72
2023-01-29T01:44:02.251Z,102796.13
2023-01-29T01:45:06.358Z,102792.56
2023-01-29T01:45:38.344Z,102791.72
2023-01-29T01:46:10.251Z,102789.09
2023-01-29T01:46:41.812Z,102791.72
2023-01-29T01:47:14.020Z,102787.44
2023-01-29T01:47:49.231Z,102792.56
2023-01-29T01:48:25.295Z,102787.00
2023-01-29T01:49:04.183Z,102787.22
2023-01-29T01:49:35.713Z,102785.09
2023-01-29T01:50:17.592Z,102783.22
2023-01-29T01:51:05.244Z,102785.00
2023-01-29T01:51:43.366Z,102790.56
2023-01-29T01:52:16.548Z,102784.69
2023-01-29T01:52:52.755Z,102785.44
2023-01-29T01:53:34.364Z,102780.19
2023-01-29T01:54:13.121Z,102791.84
2023-01-29T01:54:44.944Z,102791.72
2023-01-29T01:55:20.214Z,102792.47
2023-01-29T01:55:59.162Z,102797.91
2023-01-29T01:56:38.403Z,102800.03
2023-01-29T01:57:16.050Z,102798.53
2023-01-29T01:57:52.511Z,102800.44
2023-01-29T01:58:34.821Z,102809.25
2023-01-29T01:59:10.185Z,102801.28
2023-01-29T01:59:48.781Z,102799.59
2023-01-29T02:00:21.839Z,102797.91
2023-01-29T02:00:53.754Z,102798.53
2023-01-29T02:01:30.122Z,102801.06
2023-01-29T02:02:20.404Z,102797.72
2023-01-29T02:03:10.968Z,102799.81
2023-01-29T02:04:11.520Z,102804.94
2023-01-29T02:05:04.880Z,102805.06
2023-01-29T02:05:56.162Z,102810.09
2023-01-29T02:06:46.680Z,102806.53
2023-01-29T02:07:37.062Z,102815.84
2023-01-29T02:08:27.973Z,102811.34
2023-01-29T02:09:24.874Z,102812.91
2023-01-29T02:10:02.204Z,102813.25
2023-01-29T02:10:43.621Z,102814.41
2023-01-29T02:11:15.206Z,102806.63
2023-01-29T02:11:46.897Z,102806.84
2023-01-29T02:12:19.662Z,102800.44
2023-01-29T02:12:51.488Z,102809.25
2023-01-29T02:13:23.204Z,102804.13
2023-01-29T02:13:54.829Z,102804.84
2023-01-29T02:14:32.059Z,102806.53
2023-01-29T02:15:04.686Z,102813.25
2023-01-29T02:15:36.545Z,102802.31
2023-01-29T02:16:08.316Z,102807.69
2023-01-29T02:16:39.886Z,102810.19
2023-01-29T02:17:14.227Z,102815.34
2023-01-29T02:17:48.410Z,102811.34
2023-01-29T02:18:21.557Z,102815.84
2023-01-29T02:18:53.299Z,102808.41
2023-01-29T02:20:00.651Z,102813.44
2023-01-29T02:20:32.457Z,102810.09
2023-01-29T02:21:25.274Z,102803.16
2023-01-29T02:22:34.415Z,102805.78
2023-01-29T02:23:27.281Z,102801.50
2023-01-29T02:24:17.475Z,102801.28
2023-01-29T02:25:17.097Z,102804.84
2023-01-29T02:26:13.427Z,102815.34
2023-01-29T02:26:55.775Z,102805.03
2023-01-29T02:27:48.112Z,102810.63
2023-01-29T02:28:36.810Z,102813.44
2023-01-29T02:29:33.690Z,102814.50
2023-01-29T02:30:28.799Z,102815.44
2023-01-29T02:31:14.951Z,102812.19
2023-01-29T02:32:12.099Z,102810.31
2023-01-29T02:32:58.537Z,102816.91
2023-01-29T02:33:37.071Z,102816.50
2023-01-29T02:34:59.785Z,102813.88
2023-01-29T02:35:37.616Z,102812.47
2023-01-29T02:36:15.189Z,102809.22
2023-01-29T02:36:51.428Z,102815.09
2023-01-29T02:37:38.446Z,102822.16
2023-01-29T02:38:13.069Z,102817.03
2023-01-29T02:38:56.784Z,102820.81
2023-01-29T02:39:38.231Z,102826.47
2023-01-29T02:40:28.656Z,102817.44
2023-01-29T02:41:02.325Z,102823.22
2023-01-29T02:41:43.637Z,102823.31
2023-01-29T02:42:37.686Z,102828.94
2023-01-29T02:43:19.397Z,102823.31
2023-01-29T02:44:03.569Z,102819.97
2023-01-29T02:44:40.439Z,102823.94
2023-01-29T02:45:23.094Z,102826.88
2023-01-29T02:46:13.528Z,102824.38
2023-01-29T02:47:11.644Z,102827.09
2023-01-29T02:47:48.591Z,102825.00
2023-01-29T02:48:23.149Z,102829.41
2023-01-29T02:49:16.094Z,102839.91
2023-01-29T02:50:05.144Z,102838.00
2023-01-29T02:51:26.562Z,102835.06
2023-01-29T02:52:04.759Z,102835.91
2023-01-29T02:52:56.803Z,102836.22
2023-01-29T02:53:36.084Z,102835.28
2023-01-29T02:54:21.250Z,102842.00
2023-01-29T02:55:03.070Z,102839.47
2023-01-29T02:55:53.645Z,102836.97
2023-01-29T02:56:49.207Z,102836.13
2023-01-29T02:57:24.446Z,102833.81
2023-01-29T02:58:02.621Z,102840.09
2023-01-29T02:58:43.813Z,102842.09
2023-01-29T02:59:20.565Z,102840.41
2023-01-29T02:59:59.298Z,102835.91
2023-01-29T03:00:35.195Z,102840.53
2023-01-29T03:01:11.567Z,102836.22
2023-01-29T03:01:53.831Z,102838.75
2023-01-29T03:02:36.116Z,102836.13
2023-01-29T03:03:23.265Z,102836.84
2023-01-29T03:03:59.405Z,102827.09
2023-01-29T03:04:33.801Z,102834.00
2023-01-29T03:05:11.137Z,102833.19
2023-01-29T03:05:57.069Z,102828.25
2023-01-29T03:06:49.463Z,102827.09
2023-01-29T03:07:44.591Z,102829.81
2023-01-29T03:08:37.380Z,102835.06
2023-01-29T03:09:27.010Z,102828.88
2023-01-29T03:09:58.954Z,102833.06
2023-01-29T03:10:38.120Z,102835.69
2023-01-29T03:11:13.896Z,102832.34
2023-01-29T03:11:51.926Z,102830.88
2023-01-29T03:12:34.184Z,102830.66
2023-01-29T03:13:26.849Z,102828.03
2023-01-29T03:14:06.334Z,102835.59
2023-01-29T03:14:58.203Z,102825.63
2023-01-29T03:15:41.432Z,102824.69
2023-01-29T03:16:31.295Z,102833.59
2023-01-29T03:17:03.497Z,102826.97
2023-01-29T03:17:58.413Z,102829.59
2023-01-29T03:18:41.273Z,102824.97
2023-01-29T03:19:19.989Z,102823.19
2023-01-29T03:19:51.653Z,102819.75
2023-01-29T03:20:32.535Z,102819.75
2023-01-29T03:21:29.033Z,102817.13
2023-01-29T03:22:04.218Z,102821.63
2023-01-29T03:22:37.371Z,102816.28
2023-01-29T03:23:12.105Z,102806.63
2023-01-29T03:24:02.815Z,102812.91
2023-01-29T03:25:04.967Z,102805.66
2023-01-29T03:25:57.550Z,102803.88
2023-01-29T03:26:51.659Z,102796.00
2023-01-29T03:27:45.670Z,102788.97
2023-01-29T03:28:36.728Z,102796.34
2023-01-29T03:29:28.277Z,102791.09
2023-01-29T03:30:19.881Z,102793.09
2023-01-29T03:31:25.743Z,102785.00
2023-01-29T03:32:06.750Z,102777.31
2023-01-29T03:32:38.651Z,102776.91
2023-01-29T03:33:11.629Z,102781.22
2023-01-29T03:33:49.749Z,102778.69
2023-01-29T03:34:28.515Z,102777.97
2023-01-29T03:35:03.996Z,102773.66
2023-01-29T03:35:40.445Z,102772.72
2023-01-29T03:36:17.912Z,102774.28
2023-01-29T03:36:56.100Z,102772.94
2023-01-29T03:37:35.027Z,102774.41
2023-01-29T03:38:11.285Z,102771.88
2023-01-29T03:38:43.690Z,102772.50
2023-01-29T03:39:16.149Z,102767.25
2023-01-29T03:39:48.742Z,102771.88
2023-01-29T03:40:20.582Z,102769.66
2023-01-29T03:40:57.157Z,102761.56
2023-01-29T03:41:33.315Z,102772.28
2023-01-29T03:42:26.256Z,102773.22
2023-01-29T03:43:15.518Z,102765.16
2023-01-29T03:44:07.336Z,102761.56
2023-01-29T03:45:19.352Z,102766.09
2023-01-29T03:46:14.344Z,102761.50
2023-01-29T03:46:56.257Z,102767.25
2023-01-29T03:47:36.870Z,102771.03
2023-01-29T03:48:12.794Z,102774.41
2023-01-29T03:48:57.936Z,102764.13
2023-01-29T03:49:50.294Z,102762.84
2023-01-29T03:50:32.894Z,102761.59
2023-01-29T03:51:25.505Z,102764.97
2023-01-29T03:52:09.676Z,102751.72
2023-01-29T03:52:47.845Z,102755.72
2023-01-29T03:53:47.412Z,102752.38
2023-01-29T03:54:26.432Z,102753.84
2023-01-29T03:55:10.599Z,102760.25
2023-01-29T03:55:49.721Z,102761.41
2023-01-29T03:56:25.401Z,102751.75
2023-01-29T03:57:02.250Z,102751.03
2023-01-29T03:57:36.139Z,102755.94
2023-01-29T03:58:32.687Z,102754.66
2023-01-29T03:59:12.751Z,102755.31
2023-01-29T04:00:16.792Z,102755.31
2023-01-29T04:01:03.435Z,102758.88
2023-01-29T04:01:52.632Z,102754.91
2023-01-29T04:02:33.558Z,102753.41
2023-01-29T04:03:24.657Z,102763.28
2023-01-29T04:04:15.501Z,102755.50
2023-01-29T04:04:51.922Z,102752.16
2023-01-29T04:05:28.072Z,102754.16
2023-01-29T04:06:18.931Z,102752.38
2023-01-29T04:07:09.146Z,102756.16
2023-01-29T04:07:41.934Z,102749.97
2023-01-29T04:08:17.824Z,102757.84
2023-01-29T04:09:02.512Z,102756.69
2023-01-29T04:09:40.134Z,102754.66
2023-01-29T04:10:16.098Z,102752.81
2023-01-29T04:10:49.981Z,102750.38
2023-01-29T04:11:23.003Z,102757.41
2023-01-29T04:12:04.297Z,102740.00
2023-01-29T04:12:40.339Z,102749.25
2023-01-29T04:13:13.998Z,102745.66
2023-01-29T04:13:48.162Z,102741.47
2023-01-29T04:14:22.304Z,102738.94
2023-01-29T04:14:56.895Z,102738.94
2023-01-29T04:15:30.885Z,102736.22
2023-01-29T04:16:07.687Z,102729.59
2023-01-29T04:17:02.248Z,102723.19
2023-01-29T04:17:45.906Z,102722.06
2023-01-29T04:18:28.132Z,102730.34
2023-01-29T04:19:08.275Z,102727.53
2023-01-29T04:19:44.938Z,102721.50
2023-01-29T04:20:17.328Z,102724.97
2023-01-29T04:20:49.889Z,102720.91
2023-01-29T04:21:21.747Z,102722.91
2023-01-29T04:22:02.138Z,102732.00
2023-01-29T04:22:36.660Z,102728.66
2023-01-29T04:23:20.523Z,102712.06
2023-01-29T04:23:54.391Z,102711.78
2023-01-29T04:24:26.029Z,102708.41
2023-01-29T04:25:02.557Z,102709.56
2023-01-29T04:25:45.241Z,102710.41
2023-01-29T04:26:23.938Z,102707.88
2023-01-29T04:27:28.379Z,102713.47
2023-01-29T04:28:10.517Z,102710.19
2023-01-29T04:29:01.098Z,102721.00
2023-01-29T04:29:39.365Z,102713.97
2023-01-29T04:30:22.029Z,102711.34
2023-01-29T04:30:59.731Z,102715.25
2023-01-29T04:31:44.899Z,102717.13
2023-01-29T04:32:37.957Z,102721.94
2023-01-29T04:33:40.224Z,102730.44
2023-01-29T04:34:25.484Z,102723.41
2023-01-29T04:35:02.478Z,102730.53
2023-01-29T04:35:42.434Z,102724.47
2023-01-29T04:36:41.851Z,102727.41
2023-01-29T04:37:19.212Z,102723.84
2023-01-29T04:37:59.989Z,102722.69
2023-01-29T04:38:50.607Z,102724.47
2023-01-29T04:39:30.684Z,102726.13
2023-01-29T04:40:12.136Z,102725.91
2023-01-29T04:40:48.763Z,102727.09
2023-01-29T04:41:23.178Z,102727.28
2023-01-29T04:42:01.656Z,102717.84
2023-01-29T04:42:57.015Z,102720.50
2023-01-29T04:44:10.308Z,102719.00
2023-01-29T04:44:49.905Z,102715.88
2023-01-29T04:45:27.225Z,102725.31
2023-01-29T04:46:46.463Z,102713.13
2023-01-29T04:47:35.415Z,102712.06
2023-01-29T04:48:27.570Z,102710.06
2023-01-29T04:49:07.413Z,102721.50
2023-01-29T04:49:47.189Z,102709.34
2023-01-29T04:50:32.042Z,102710.41
2023-01-29T04:51:06.217Z,102708.94
2023-01-29T04:52:12.825Z,102704.44
2023-01-29T04:53:02.572Z,102709.47
2023-01-29T04:53:48.194Z,102706.63
2023-01-29T04:54:29.453Z,102701.38
2023-01-29T04:55:14.483Z,102705.03
2023-01-29T04:55:51.958Z,102704.44
2023-01-29T04:56:58.944Z,102698.66
2023-01-29T04:57:36.303Z,102705.38
2023-01-29T04:58:16.845Z,102690.25
2023-01-29T04:58:53.190Z,102697.63
2023-01-29T04:59:33.341Z,102703.81
2023-01-29T05:00:13.698Z,102702.03
2023-01-29T05:00:50.324Z,102699.41
2023-01-29T05:01:25.763Z,102696.25
2023-01-29T05:01:59.712Z,102696.78
2023-01-29T05:02:31.905Z,102700.22
2023-01-29T05:03:04.087Z,102695.72
2023-01-29T05:03:37.113Z,102694.88
2023-01-29T05:04:12.066Z,102700.75
2023-01-29T05:04:44.775Z,102697.41
2023-01-29T05:05:19.398Z,102700.97
2023-01-29T05:05:51.336Z,102697.63
2023-01-29T05:06:23.159Z,102702.97
2023-01-29T05:06:55.720Z,102710.63
2023-01-29T05:07:28.849Z,102705.38
2023-01-29T05:08:00.433Z,102700.56
2023-01-29T05:08:33.095Z,102707.59
2023-01-29T05:09:04.757Z,102703.91
2023-01-29T05:09:37.237Z,102710.84
2023-01-29T05:10:10.019Z,102718.91
2023-01-29T05:10:42.480Z,102714.41
2023-01-29T05:11:14.408Z,102711.88
2023-01-29T05:11:47.369Z,102708.75
2023-01-29T05:12:19.245Z,102709.56
2023-01-29T05:12:56.039Z,102711.25
2023-01-29T05:13:29.107Z,102708.09
2023-01-29T05:14:02.722Z,102707.16
2023-01-29T05:14:35.692Z,102708.09
2023-01-29T05:15:14.624Z,102703.06
2023-01-29T05:16:00.867Z,102706.44
2023-01-29T05:16:42.189Z,102699.19
2023-01-29T05:17:16.256Z,102703.47
2023-01-29T05:17:47.864Z,102694.88
2023-01-29T05:18:19.424Z,102705.38
2023-01-29T05:18:51.210Z,102699.41
2023-01-29T05:19:22.710Z,102699.50
2023-01-29T05:19:55.768Z,102694.25
2023-01-29T05:20:27.660Z,102696.44
2023-01-29T05:21:06.828Z,102703.38
2023-01-29T05:21:42.362Z,102702.75
2023-01-29T05:22:17.033Z,102700.34
2023-01-29T05:22:49.221Z,102700.34
2023-01-29T05:23:22.430Z,102698.13
2023-01-29T05:24:10.287Z,102701.38
2023-01-29T05:24:41.880Z,102700.75
2023-01-29T05:25:25.203Z,102702.75
2023-01-29T05:25:56.865Z,102709.16
2023-01-29T05:26:46.717Z,102702.44
2023-01-29T05:27:39.211Z,102699.72
2023-01-29T05:28:17.309Z,102704.31
2023-01-29T05:28:48.855Z,102704.22
2023-01-29T05:29:21.166Z,102703.69
2023-01-29T05:29:53.092Z,102712.28
2023-01-29T05:30:24.897Z,102713.03
2023-01-29T05:30:56.984Z,102711.34
2023-01-29T05:31:28.628Z,102709.25
2023-01-29T05:32:00.611Z,102716.47
2023-01-29T05:32:32.217Z,102723.50
2023-01-29T05:33:04.645Z,102714.69
2023-01-29T05:33:39.076Z,102715.13
2023-01-29T05:34:10.604Z,102712.91
2023-01-29T05:34:42.496Z,102719.00
2023-01-29T05:35:14.172Z,102713.88
2023-01-29T05:35:46.217Z,102726.13
2023-01-29T05:36:18.958Z,102723.63
2023-01-29T05:36:50.763Z,102722.16
2023-01-29T05:37:23.007Z,102726.25
2023-01-29T05:37:57.928Z,102720.69
2023-01-29T05:38:29.469Z,102715.75
2023-01-29T05:39:01.135Z,102719.84
2023-01-29T05:39:33.029Z,102712.91
2023-01-29T05:40:04.992Z,102717.03
2023-01-29T05:40:37.039Z,102719.66
2023-01-29T05:41:09.093Z,102712.50
2023-01-29T05:41:40.786Z,102713.03
2023-01-29T05:42:12.344Z,102707.88
2023-01-29T05:42:44.181Z,102717.94
2023-01-29T05:43:19.130Z,102713.13
2023-01-29T05:43:50.686Z,102722.91
2023-01-29T05:44:22.305Z,102723.63
2023-01-29T05:44:53.863Z,102728.88
2023-01-29T05:45:26.708Z,102732.66
2023-01-29T05:45:59.905Z,102730.03
2023-01-29T05:46:31.859Z,102727.81
2023-01-29T05:47:03.375Z,102730.53
2023-01-29T05:47:34.942Z,102733.16
2023-01-29T05:48:06.634Z,102731.06
2023-01-29T05:48:38.287Z,102738.19
2023-01-29T05:49:09.877Z,102738.09
2023-01-29T05:49:41.429Z,102733.28
2023-01-29T05:50:15.274Z,102733.06
2023-01-29T05:50:47.003Z,102737.25
2023-01-29T05:51:18.973Z,102732.22
2023-01-29T05:51:50.581Z,102726.97
2023-01-29T05:52:22.113Z,102731.06
2023-01-29T05:53:00.333Z,102727.09
2023-01-29T05:53:33.039Z,102723.00
2023-01-29T05:54:05.007Z,102721.13
2023-01-29T05:54:36.546Z,102716.91
2023-01-29T05:55:09.620Z,102714.59
2023-01-29T05:55:45.568Z,102713.53
2023-01-29T05:56:17.120Z,102716.09
2023-01-29T05:56:48.635Z,102717.44
2023-01-29T05:57:20.222Z,102716.81
2023-01-29T05:57:51.972Z,102716.91
2023-01-29T05:58:23.745Z,102718.38
2023-01-29T05:58:56.218Z,102714.19
2023-01-29T05:59:27.987Z,102712.09
2023-01-29T05:59:59.508Z,102705.38
2023-01-29T06:00:31.057Z,102708.84
2023-01-29T06:01:13.883Z,102710.00
2023-01-29T06:01:45.509Z,102701.38
2023-01-29T06:02:17.085Z,102701.19
2023-01-29T06:02:48.645Z,102700.34
2023-01-29T06:03:20.181Z,102697.81
2023-01-29T06:03:51.939Z,102697.63
2023-01-29T06:04:23.701Z,102688.06
2023-01-29T06:04:55.227Z,102691.81
2023-01-29T06:05:26.785Z,102691.31
2023-01-29T06:05:58.310Z,102693.09
2023-01-29T06:06:29.839Z,102692.25
2023-01-29T06:07:03.416Z,102689.84
2023-01-29T06:07:35.993Z,102689.63
2023-01-29T06:08:08.377Z,102685.13
2023-01-29T06:08:40.239Z,102689.84
2023-01-29T06:09:12.068Z,102688.06
2023-01-29T06:09:43.650Z,102697.41
2023-01-29T06:10:17.325Z,102694.22
2023-01-29T06:10:49.073Z,102692.78
2023-01-29T06:11:21.626Z,102691.31
2023-01-29T06:11:53.206Z,102695.63
2023-01-29T06:12:24.995Z,102690.47
2023-01-29T06:12:56.511Z,102695.63
2023-01-29T06:13:28.435Z,102699.91
2023-01-29T06:13:59.972Z,102697.41
2023-01-29T06:14:31.864Z,102697.63
2023-01-29T06:15:03.658Z,102693.22
2023-01-29T06:15:35.173Z,102693.94
2023-01-29T06:16:08.140Z,102690.25
2023-01-29T06:16:39.726Z,102691.19
2023-01-29T06:17:11.334Z,102687.75
2023-01-29T06:17:43.332Z,102681.03
2023-01-29T06:18:14.878Z,102686.69
2023-01-29T06:18:46.389Z,102682.06
2023-01-29T06:19:18.275Z,102679.66
2023-01-29T06:19:49.970Z,102682.28
2023-01-29T06:20:22.233Z,102682.28
2023-01-29T06:20:53.750Z,102685.41
2023-01-29T06:21:25.330Z,102680.59
2023-01-29T06:21:56.853Z,102682.16
2023-01-29T06:22:28.380Z,102676.81
2023-01-29T06:23:00.106Z,102682.06
2023-01-29T06:23:32.031Z,102676.19
2023-01-29T06:24:03.758Z,102670.31
2023-01-29T06:24:35.603Z,102680.59
2023-01-29T06:25:07.745Z,102677.03
2023-01-29T06:25:39.297Z,102681.53
2023-01-29T06:26:12.841Z,102680.28
2023-01-29T06:26:44.393Z,102680.50
2023-01-29T06:27:15.933Z,102677.53
2023-01-29T06:27:50.983Z,102682.28
2023-01-29T06:28:22.516Z,102682.91
2023-01-29T06:28:54.111Z,102681.75
2023-01-29T06:29:25.703Z,102685.97
2023-01-29T06:29:57.273Z,102680.59
2023-01-29T06:30:28.865Z,102682.72
2023-01-29T06:31:20.960Z,102678.31
2023-01-29T06:31:53.874Z,102679.16
2023-01-29T06:32:25.547Z,102688.81
2023-01-29T06:33:04.091Z,102681.44
2023-01-29T06:33:35.668Z,102688.97
2023-01-29T06:34:07.928Z,102685.63
2023-01-29T06:34:39.517Z,102691.28
2023-01-29T06:35:11.206Z,102688.97
2023-01-29T06:35:42.726Z,102688.25
2023-01-29T06:36:14.287Z,102680.16
2023-01-29T06:36:45.810Z,102680.16
2023-01-29T06:37:17.337Z,102680.16
2023-01-29T06:37:48.969Z,102681.75
2023-01-29T06:38:20.488Z,102673.69
2023-01-29T06:38:52.041Z,102678.19
2023-01-29T06:39:23.699Z,102673.91
2023-01-29T06:39:55.252Z,102678.19
2023-01-29T06:40:26.841Z,102679.16
2023-01-29T06:40:58.646Z,102673.78
2023-01-29T06:41:30.236Z,102674.00
2023-01-29T06:42:01.835Z,102674.13
2023-01-29T06:42:35.629Z,102677.69
2023-01-29T06:43:07.168Z,102682.72
2023-01-29T06:43:39.072Z,102681.03
2023-01-29T06:44:10.622Z,102680.81
2023-01-29T06:44:42.377Z,102685.84
2023-01-29T06:45:13.999Z,102687.81
2023-01-29T06:45:49.243Z,102685.91
2023-01-29T06:46:21.060Z,102692.22
2023-01-29T06:46:52.591Z,102692.94
2023-01-29T06:47:24.843Z,102698.41
2023-01-29T06:47:56.607Z,102696.13
2023-01-29T06:48:28.196Z,102693.00
2023-01-29T06:49:00.704Z,102687.97
2023-01-29T06:49:32.373Z,102688.34
2023-01-29T06:50:04.116Z,102683.34
2023-01-29T06:50:35.644Z,102682.81
2023-01-29T06:51:08.757Z,102683.66
2023-01-29T06:51:40.252Z,102686.06
2023-01-29T06:52:11.781Z,102680.81
2023-01-29T06:52:43.327Z,102678.09
2023-01-29T06:53:15.905Z,102686.19
2023-01-29T06:53:47.375Z,102679.25
2023-01-29T06:54:18.917Z,102683.78
2023-01-29T06:54:50.492Z,102677.69
2023-01-29T06:55:21.984Z,102689.00
2023-01-29T06:55:54.071Z,102679.03
2023-01-29T06:56:25.699Z,102692.25
2023-01-29T06:56:57.256Z,102682.72
2023-01-29T06:57:30.109Z,102675.78
2023-01-29T06:58:06.059Z,102673.28
2023-01-29T06:58:38.318Z,102678.09
2023-01-29T06:59:12.904Z,102675.56
2023-01-29T06:59:44.458Z,102672.84
2023-01-29T07:00:17.287Z,102683.94
2023-01-29T07:00:49.022Z,102685.84
2023-01-29T07:01:34.633Z,102680.81
2023-01-29T07:02:07.497Z,102672.84
2023-01-29T07:02:39.135Z,102670.84
2023-01-29T07:03:11.212Z,102668.66
2023-01-29T07:03:43.597Z,102670.31
2023-01-29T07:04:15.126Z,102661.41